Time;durP1;ratioP1;P1;durP2;ratioP2;P2;SDS_P1;SDS_P2;PMS_P1;PMS_P2;Temp;Humidity;BMP_temperature;BMP_pressure;BME280_temperature;BME280_humidity;BME280_pressure;Samples;Min_cycle;Max_cycle;Signal;HPM_P1;HPM_P2
2021/12/19 00:01:19;;;;;;;6.47;5.60;;;;;;;5.23;100.00;101875.50;4992158;28;20667;-62
2021/12/19 00:04:17;;;;;;;6.90;6.30;;;;;;;5.33;100.00;101872.09;5019187;28;20179;-62
2021/12/19 00:09:29;;;;;;;6.23;5.63;;;;;;;5.40;100.00;101869.50;5015471;28;20193;-62
2021/12/19 00:11:56;;;;;;;5.63;5.13;;;;;;;5.37;100.00;101872.94;5017450;28;20238;-61
2021/12/19 00:14:23;;;;;;;5.87;5.37;;;;;;;5.28;100.00;101871.25;5032479;28;20771;-62
2021/12/19 00:16:50;;;;;;;6.53;5.80;;;;;;;5.21;100.00;101864.47;5022015;28;20733;-63
2021/12/19 00:19:15;;;;;;;5.90;5.37;;;;;;;5.12;100.00;101857.72;5046007;28;20265;-63
2021/12/19 00:21:40;;;;;;;5.30;4.80;;;;;;;5.33;100.00;101859.34;5015395;28;20381;-62
2021/12/19 00:24:07;;;;;;;5.37;4.87;;;;;;;5.41;100.00;101855.88;4998548;28;20171;-63
2021/12/19 00:26:32;;;;;;;5.30;4.80;;;;;;;5.46;100.00;101851.63;5008835;28;20198;-63
2021/12/19 00:29:00;;;;;;;5.70;5.07;;;;;;;5.47;100.00;101845.63;5024777;28;20592;-63
2021/12/19 00:31:26;;;;;;;5.60;5.10;;;;;;;5.52;100.00;101849.03;4990467;28;20622;-63
2021/12/19 00:33:51;;;;;;;5.77;5.20;;;;;;;5.36;100.00;101844.84;5016527;28;20190;-63
2021/12/19 00:36:16;;;;;;;5.47;4.93;;;;;;;5.32;100.00;101851.66;5025949;28;20281;-63
2021/12/19 00:38:41;;;;;;;5.97;5.17;;;;;;;5.32;100.00;101857.63;5014298;28;20229;-63
2021/12/19 00:41:08;;;;;;;5.27;4.77;;;;;;;5.27;100.00;101854.25;5013412;28;20603;-63
2021/12/19 00:43:44;;;;;;;6.07;5.47;;;;;;;5.28;100.00;101855.09;5027534;28;20179;-63
2021/12/19 00:46:12;;;;;;;5.10;4.70;;;;;;;5.16;100.00;101848.34;5030573;28;20214;-63
2021/12/19 00:48:48;;;;;;;4.53;4.13;;;;;;;5.01;100.00;101855.19;5024865;28;20697;-63
2021/12/19 00:51:18;;;;;;;6.47;4.23;;;;;;;4.78;100.00;101854.41;5012127;28;20343;-63
2021/12/19 00:53:45;;;;;;;4.90;4.50;;;;;;;4.82;100.00;101851.81;5014941;28;20915;-63
2021/12/19 00:56:12;;;;;;;5.43;4.93;;;;;;;4.98;100.00;101834.78;5032379;28;20236;-62
2021/12/19 00:58:37;;;;;;;6.20;5.03;;;;;;;5.04;100.00;101845.84;5033541;28;20309;-63
2021/12/19 01:01:05;;;;;;;5.20;4.70;;;;;;;5.18;100.00;101844.06;5022423;28;20218;-63
2021/12/19 01:03:30;;;;;;;6.17;4.67;;;;;;;5.17;100.00;101848.34;5032862;28;20175;-63
2021/12/19 01:05:56;;;;;;;5.90;5.30;;;;;;;4.95;100.00;101839.91;5037175;28;20650;-63
2021/12/19 01:08:21;;;;;;;5.17;4.77;;;;;;;4.69;100.00;101845.91;5035484;28;20814;-63
2021/12/19 01:10:48;;;;;;;5.60;5.20;;;;;;;4.86;100.00;101850.13;5023390;28;20542;-63
2021/12/19 01:13:15;;;;;;;5.47;4.97;;;;;;;4.92;100.00;101831.41;5011063;28;20291;-62
2021/12/19 01:15:41;;;;;;;4.97;4.47;;;;;;;5.03;100.00;101824.56;4994950;28;20203;-63
2021/12/19 01:18:07;;;;;;;5.03;4.63;;;;;;;5.07;100.00;101825.41;5013017;28;20302;-62
2021/12/19 01:20:35;;;;;;;5.63;5.13;;;;;;;5.09;100.00;101823.72;5004232;28;20315;-62
2021/12/19 01:23:01;;;;;;;5.53;5.03;;;;;;;5.08;100.00;101819.47;5037616;28;20239;-63
2021/12/19 01:25:27;;;;;;;5.57;5.07;;;;;;;5.22;100.00;101812.59;5046564;28;20281;-64
2021/12/19 01:27:52;;;;;;;6.10;5.50;;;;;;;5.22;100.00;101804.09;5041342;28;20203;-63
2021/12/19 01:30:18;;;;;;;8.10;5.80;;;;;;;5.28;100.00;101802.38;5030153;28;20194;-63
2021/12/19 01:32:44;;;;;;;5.77;5.27;;;;;;;5.18;100.00;101808.34;5034481;28;20183;-63
2021/12/19 01:35:12;;;;;;;6.63;5.90;;;;;;;5.25;100.00;101804.94;5038875;28;20204;-62
2021/12/19 01:37:38;;;;;;;6.73;5.60;;;;;;;5.22;100.00;101809.19;5039845;28;20521;-63
2021/12/19 01:40:06;;;;;;;5.57;5.07;;;;;;;5.29;100.00;101809.16;5047108;28;20200;-63
2021/12/19 01:42:35;;;;;;;6.03;5.53;;;;;;;5.35;100.00;101808.28;5038536;28;20183;-62
2021/12/19 01:45:01;;;;;;;6.03;5.50;;;;;;;5.28;100.00;101815.13;5046439;28;20293;-62
2021/12/19 01:47:27;;;;;;;5.80;5.30;;;;;;;5.22;100.00;101815.16;5032120;28;20189;-62
2021/12/19 01:49:52;;;;;;;6.80;4.80;;;;;;;5.23;100.00;101816.00;5034910;28;20195;-62
2021/12/19 01:52:18;;;;;;;5.23;4.80;;;;;;;5.28;100.00;101811.72;5020034;28;20256;-62
2021/12/19 01:54:45;;;;;;;5.03;4.63;;;;;;;5.25;100.00;101815.13;5031646;28;20226;-61
2021/12/19 01:57:11;;;;;;;6.37;5.30;;;;;;;5.03;100.00;101819.47;5042895;28;20181;-62
2021/12/19 01:59:36;;;;;;;6.03;4.60;;;;;;;5.08;100.00;101812.66;5032123;28;20248;-62
2021/12/19 02:02:02;;;;;;;5.27;4.73;;;;;;;5.09;100.00;101811.78;5019493;28;20226;-62
2021/12/19 02:04:30;;;;;;;5.03;4.63;;;;;;;4.93;100.00;101807.63;5044044;28;20221;-63
2021/12/19 02:06:57;;;;;;;4.93;4.43;;;;;;;4.98;100.00;101801.63;5039030;28;20204;-63
2021/12/19 02:09:22;;;;;;;5.03;4.53;;;;;;;5.05;100.00;101801.59;5042563;28;20234;-62
2021/12/19 02:11:47;;;;;;;5.53;5.03;;;;;;;5.10;100.00;101797.34;5005609;28;20382;-61
2021/12/19 02:14:13;;;;;;;4.97;4.43;;;;;;;5.07;100.00;101793.09;5025482;28;20187;-61
2021/12/19 02:16:40;;;;;;;4.80;4.40;;;;;;;4.97;100.00;101799.09;5019285;28;20218;-61
2021/12/19 02:19:07;;;;;;;5.07;4.57;;;;;;;5.04;100.00;101793.13;5011937;28;20197;-61
2021/12/19 02:21:33;;;;;;;4.97;4.47;;;;;;;5.06;100.00;101788.88;5022589;28;20250;-62
2021/12/19 02:24:00;;;;;;;5.27;4.87;;;;;;;5.22;100.00;101776.03;5015119;28;20221;-63
2021/12/19 02:26:25;;;;;;;4.80;4.40;;;;;;;5.19;100.00;101782.00;5013475;28;20358;-61
2021/12/19 02:28:51;;;;;;;4.87;4.43;;;;;;;5.19;100.00;101791.38;5011033;28;20277;-61
2021/12/19 02:31:16;;;;;;;4.90;4.50;;;;;;;5.21;100.00;101795.59;5015172;28;20229;-61
2021/12/19 02:33:53;;;;;;;4.43;4.03;;;;;;;5.13;100.00;101795.63;5032476;28;20215;-62
2021/12/19 02:36:26;;;;;;;5.20;4.73;;;;;;;5.12;100.00;101788.84;5039302;28;20306;-61
2021/12/19 02:49:48;;;;;;;5.63;4.50;;;;;;;4.81;100.00;101785.53;5011265;28;20177;-62
2021/12/19 02:52:18;;;;;;;4.83;4.37;;;;;;;4.83;100.00;101773.66;4993654;28;20218;-63
2021/12/19 02:54:44;;;;;;;4.70;4.30;;;;;;;4.95;100.00;101775.28;5006828;28;20243;-63
2021/12/19 02:57:10;;;;;;;5.07;4.63;;;;;;;4.87;100.00;101756.66;5010727;28;20194;-63
2021/12/19 02:59:35;;;;;;;5.20;3.90;;;;;;;4.87;100.00;101756.66;5010401;28;20784;-63
2021/12/19 03:02:00;;;;;;;5.10;4.60;;;;;;;4.79;100.00;101761.78;5016317;28;20236;-63
2021/12/19 03:04:26;;;;;;;4.63;4.23;;;;;;;4.76;100.00;101767.72;5044619;28;20715;-63
2021/12/19 03:06:51;;;;;;;5.70;5.13;;;;;;;4.65;100.00;101762.66;5029744;28;20210;-63
2021/12/19 03:09:35;;;;;;;5.43;4.93;;;;;;;4.69;100.00;101753.31;5037708;28;20178;-63
2021/12/19 03:12:10;;;;;;;7.03;5.80;;;;;;;4.68;100.00;101749.06;5025317;28;20694;-62
2021/12/19 03:20:07;;;;;;;6.03;5.47;;;;;;;4.83;100.00;101735.41;5024341;28;20186;-63
2021/12/19 03:22:32;;;;;;;6.13;5.63;;;;;;;4.81;100.00;101747.31;5013174;28;20577;-63
2021/12/19 03:24:58;;;;;;;6.03;5.43;;;;;;;4.82;100.00;101743.91;5012808;28;20186;-63
2021/12/19 03:27:24;;;;;;;6.27;5.67;;;;;;;4.90;100.00;101737.06;5011202;28;20257;-63
2021/12/19 03:29:49;;;;;;;6.07;5.47;;;;;;;4.83;100.00;101740.50;5011277;28;20189;-63
2021/12/19 03:32:14;;;;;;;7.07;6.37;;;;;;;4.85;100.00;101729.44;5020727;28;20221;-63
2021/12/19 03:34:40;;;;;;;6.30;5.70;;;;;;;4.88;100.00;101733.69;5034428;28;20186;-63
2021/12/19 03:37:06;;;;;;;6.73;6.13;;;;;;;4.95;100.00;101727.69;5019411;28;20236;-63
2021/12/19 03:39:44;;;;;;;7.27;6.57;;;;;;;4.96;100.00;101731.94;5034214;28;20210;-63
2021/12/19 03:42:10;;;;;;;7.77;6.97;;;;;;;4.71;100.00;101730.34;5038001;28;20721;-63
2021/12/19 03:44:35;;;;;;;7.93;7.07;;;;;;;4.55;100.00;101729.56;5044362;28;20205;-63
2021/12/19 03:47:01;;;;;;;7.33;6.63;;;;;;;4.62;100.00;101731.25;5033821;28;20287;-63
2021/12/19 03:49:26;;;;;;;8.70;7.00;;;;;;;4.50;100.00;101721.91;5036607;28;20192;-63
2021/12/19 03:51:51;;;;;;;7.67;6.83;;;;;;;4.63;100.00;101728.69;5015406;28;20225;-63
2021/12/19 03:54:17;;;;;;;8.33;7.47;;;;;;;4.59;100.00;101731.25;5033119;28;20178;-63
2021/12/19 03:56:42;;;;;;;8.67;7.77;;;;;;;4.78;100.00;101719.28;5033110;28;20213;-63
2021/12/19 03:59:08;;;;;;;8.20;7.40;;;;;;;4.92;100.00;101712.41;5044812;28;20181;-63
2021/12/19 04:01:33;;;;;;;8.00;7.20;;;;;;;4.99;99.70;101715.78;4985030;28;20222;-63
2021/12/19 04:03:59;;;;;;;9.37;8.37;;;;;;;5.03;99.39;101706.41;4996939;28;20266;-63
2021/12/19 04:06:25;;;;;;;10.43;8.37;;;;;;;5.11;98.64;101713.16;5019113;28;20203;-63
2021/12/19 04:08:51;;;;;;;9.47;8.07;;;;;;;5.14;98.08;101713.13;5020574;28;20279;-62
2021/12/19 04:11:16;;;;;;;9.77;8.77;;;;;;;5.11;97.86;101715.72;5013682;28;20652;-62
2021/12/19 04:13:41;;;;;;;9.93;8.93;;;;;;;5.11;97.84;101704.66;5016043;28;20180;-63
2021/12/19 04:16:07;;;;;;;8.77;7.90;;;;;;;5.15;97.69;101702.06;5007429;28;20313;-63
2021/12/19 04:18:32;;;;;;;9.03;8.00;;;;;;;5.22;97.52;101682.50;5000525;28;20245;-63
2021/12/19 04:20:57;;;;;;;9.17;8.27;;;;;;;5.25;97.46;101686.72;5007169;28;20234;-63
2021/12/19 04:23:23;;;;;;;9.90;8.90;;;;;;;5.28;97.40;101679.91;5032969;28;20219;-63
2021/12/19 04:25:50;;;;;;;9.73;8.77;;;;;;;5.20;97.47;101676.53;5034022;28;20276;-63
2021/12/19 04:28:15;;;;;;;10.03;9.00;;;;;;;5.10;97.95;101675.75;5037163;28;20188;-63
2021/12/19 04:30:41;;;;;;;10.30;9.30;;;;;;;5.10;97.93;101674.91;5014084;28;20254;-63
2021/12/19 04:33:10;;;;;;;9.93;8.93;;;;;;;5.17;97.83;101669.75;5032866;28;20593;-63
2021/12/19 04:35:39;;;;;;;9.87;8.87;;;;;;;5.25;97.29;101668.88;5017658;28;20687;-63
2021/12/19 04:44:19;;;;;;;9.43;8.43;;;;;;;5.09;97.55;101661.31;5035693;28;20214;-63
2021/12/19 04:52:18;;;;;;;9.70;7.80;;;;;;;5.14;97.19;101649.34;5022779;28;20299;-63
2021/12/19 05:00:19;;;;;;;11.93;8.00;;;;;;;4.91;98.15;101631.69;4929760;28;20196;-63
2021/12/19 05:16:08;;;;;;;8.37;7.53;;;;;;;5.21;99.03;101629.78;4934503;29;20268;-63
2021/12/19 05:18:37;;;;;;;8.40;7.40;;;;;;;5.23;98.17;101633.13;4933013;29;20859;-63
2021/12/19 05:21:12;;;;;;;7.67;6.87;;;;;;;5.23;98.30;101633.13;4924144;29;20232;-63
2021/12/19 05:24:02;;;;;;;8.37;7.57;;;;;;;5.06;98.23;101627.31;4943687;29;20201;-63
2021/12/19 05:26:23;;;;;;;8.87;7.37;;;;;;;5.04;98.64;101632.44;4940957;28;20230;-63
2021/12/19 05:28:48;;;;;;;9.23;7.67;;;;;;;5.16;98.53;101628.97;4932913;29;20848;-63
2021/12/19 05:31:15;;;;;;;8.07;7.27;;;;;;;4.99;98.43;101621.41;4930823;29;20226;-63
2021/12/19 05:33:41;;;;;;;9.27;8.27;;;;;;;4.98;99.34;101617.16;4933939;29;20189;-63
2021/12/19 05:44:10;;;;;;;8.90;7.93;;;;;;;5.15;99.03;101611.97;4969472;28;20584;-63
2021/12/19 05:46:48;;;;;;;9.37;8.37;;;;;;;5.06;97.60;101629.84;5042531;28;20231;-63
2021/12/19 05:49:13;;;;;;;10.23;8.73;;;;;;;5.10;98.09;101622.19;5032808;28;20207;-63
2021/12/19 05:51:39;;;;;;;10.63;9.03;;;;;;;5.19;98.29;101623.81;5034416;28;20229;-63
2021/12/19 05:54:04;;;;;;;9.70;8.63;;;;;;;5.18;98.20;101606.81;5030243;28;20189;-63
2021/12/19 05:56:31;;;;;;;10.87;9.10;;;;;;;5.09;98.28;101610.28;5032312;28;20202;-63
2021/12/19 05:58:57;;;;;;;10.73;9.63;;;;;;;5.15;98.56;101612.78;5037638;28;20181;-63
2021/12/19 06:01:22;;;;;;;9.47;8.57;;;;;;;5.16;98.48;101600.91;5022027;28;20225;-62
2021/12/19 06:03:47;;;;;;;13.67;8.90;;;;;;;5.22;98.61;101600.84;5031498;28;20308;-63
2021/12/19 06:06:13;;;;;;;10.73;8.77;;;;;;;5.28;98.23;101607.59;5033110;28;20272;-63
2021/12/19 06:08:38;;;;;;;12.30;9.10;;;;;;;5.32;97.78;101605.00;5038977;28;20185;-62
2021/12/19 06:11:03;;;;;;;11.77;10.17;;;;;;;5.29;97.89;101599.91;5030641;28;20628;-63
2021/12/19 06:13:29;;;;;;;10.63;9.53;;;;;;;5.34;97.81;101597.34;5038598;28;20188;-62
2021/12/19 06:15:56;;;;;;;12.17;9.60;;;;;;;5.32;97.72;101599.91;5033575;28;20198;-63
2021/12/19 06:18:22;;;;;;;10.37;8.80;;;;;;;5.25;98.16;101598.25;5033678;28;20649;-63
2021/12/19 06:20:47;;;;;;;11.30;9.30;;;;;;;5.36;97.87;101587.97;5024384;28;20262;-63
2021/12/19 06:23:12;;;;;;;12.97;10.90;;;;;;;5.41;97.74;101585.34;5028798;28;20270;-62
2021/12/19 06:25:45;;;;;;;10.37;9.27;;;;;;;5.36;97.83;101593.06;5039240;28;20275;-62
2021/12/19 06:28:12;;;;;;;9.70;8.70;;;;;;;5.47;97.53;101581.06;5039350;28;20182;-63
2021/12/19 06:30:37;;;;;;;10.97;9.50;;;;;;;5.40;97.53;101581.13;5025774;28;20725;-63
2021/12/19 06:33:02;;;;;;;10.83;9.50;;;;;;;5.21;97.88;101583.84;5051131;28;20186;-63
2021/12/19 06:35:29;;;;;;;14.60;10.53;;;;;;;5.31;97.97;101582.06;5046479;28;20198;-63
2021/12/19 06:37:54;;;;;;;11.93;10.73;;;;;;;5.24;98.29;101588.06;5037005;28;20180;-63
2021/12/19 06:40:21;;;;;;;13.83;10.80;;;;;;;5.36;98.79;101585.41;5027902;28;20182;-63
2021/12/19 06:42:47;;;;;;;15.97;11.37;;;;;;;5.50;98.29;101587.84;5030846;28;20170;-63
2021/12/19 06:45:13;;;;;;;14.00;11.67;;;;;;;5.57;97.47;101588.59;5041108;28;20586;-63
2021/12/19 06:47:39;;;;;;;14.60;11.73;;;;;;;5.50;96.93;101578.47;5037876;28;20563;-63
2021/12/19 06:50:06;;;;;;;15.10;11.43;;;;;;;5.61;96.43;101587.72;5035210;28;20183;-63
2021/12/19 06:52:31;;;;;;;13.97;11.83;;;;;;;5.58;96.49;101575.00;5030614;28;20813;-63
2021/12/19 06:54:57;;;;;;;14.73;12.20;;;;;;;5.57;96.53;101584.38;5031585;28;20257;-63
2021/12/19 06:57:22;;;;;;;13.97;12.03;;;;;;;5.53;96.74;101581.84;5044086;28;20202;-63
2021/12/19 06:59:48;;;;;;;13.33;10.87;;;;;;;5.46;96.78;101589.56;5032011;28;20719;-63
2021/12/19 07:02:16;;;;;;;15.03;11.80;;;;;;;5.38;97.69;101577.75;5020617;28;20225;-63
2021/12/19 07:04:42;;;;;;;21.33;14.67;;;;;;;5.26;98.18;101576.13;5035897;28;20264;-63
2021/12/19 07:07:07;;;;;;;18.83;14.53;;;;;;;5.41;98.31;101567.47;5031663;28;20223;-63
2021/12/19 07:09:32;;;;;;;17.77;14.43;;;;;;;5.52;97.76;101567.41;5031237;28;20270;-63
2021/12/19 07:11:58;;;;;;;18.37;14.00;;;;;;;5.59;97.54;101566.47;5014026;28;20238;-63
2021/12/19 07:14:23;;;;;;;15.93;12.23;;;;;;;5.52;97.22;101569.94;5025734;28;20190;-63
2021/12/19 07:16:49;;;;;;;18.17;13.30;;;;;;;5.54;97.13;101566.50;5013724;28;20735;-63
2021/12/19 07:19:14;;;;;;;15.87;13.37;;;;;;;5.61;96.76;101562.22;5039874;28;20541;-63
2021/12/19 07:21:40;;;;;;;16.13;12.80;;;;;;;5.61;96.52;101563.03;5028336;28;20263;-63
2021/12/19 07:24:05;;;;;;;15.17;12.40;;;;;;;5.59;96.62;101564.75;5032187;28;20183;-63
2021/12/19 07:26:30;;;;;;;17.17;13.37;;;;;;;5.55;96.78;101565.66;5039192;28;20698;-63
2021/12/19 07:28:57;;;;;;;15.50;12.50;;;;;;;5.68;96.73;101563.84;5030871;28;20179;-63
2021/12/19 07:31:22;;;;;;;16.63;13.40;;;;;;;5.77;96.16;101556.06;5032999;28;20318;-63
2021/12/19 07:33:47;;;;;;;17.73;13.90;;;;;;;5.72;95.83;101552.72;5039555;28;20656;-63
2021/12/19 07:36:14;;;;;;;16.10;13.07;;;;;;;5.74;95.52;101555.25;5035906;28;20719;-63
2021/12/19 07:38:54;;;;;;;16.90;13.67;;;;;;;5.73;95.92;101545.91;5041212;28;20180;-63
2021/12/19 07:41:20;;;;;;;19.57;14.10;;;;;;;5.77;95.51;101552.69;5021770;28;20245;-63
2021/12/19 07:43:45;;;;;;;18.63;14.53;;;;;;;5.77;95.71;101545.03;5030970;28;20651;-63
2021/12/19 07:46:10;;;;;;;19.03;15.20;;;;;;;5.73;96.15;101546.75;5046590;28;20779;-63
2021/12/19 07:48:35;;;;;;;20.40;14.17;;;;;;;5.63;96.50;101547.69;5040393;28;20210;-63
2021/12/19 07:51:01;;;;;;;19.57;13.87;;;;;;;5.71;96.71;101545.91;5031554;28;20325;-63
2021/12/19 07:53:26;;;;;;;22.40;15.87;;;;;;;5.67;96.56;101536.63;5035129;28;20180;-64
2021/12/19 07:55:51;;;;;;;20.90;15.67;;;;;;;5.89;95.90;101549.13;5048599;28;20240;-63
2021/12/19 07:58:17;;;;;;;20.70;15.90;;;;;;;5.90;95.37;101541.44;5043545;28;20186;-63
2021/12/19 08:00:42;;;;;;;21.70;14.83;;;;;;;5.86;94.79;101544.91;5010654;28;20247;-63
2021/12/19 08:03:08;;;;;;;20.23;15.33;;;;;;;5.85;94.97;101543.19;5024932;28;20267;-63
2021/12/19 08:05:33;;;;;;;21.07;15.20;;;;;;;5.85;95.30;101543.19;5029973;28;20203;-64
2021/12/19 08:08:04;;;;;;;21.83;15.73;;;;;;;5.82;95.44;101541.53;5031673;28;20234;-63
2021/12/19 08:13:04;;;;;;;22.67;15.70;;;;;;;5.95;94.62;101543.94;5017407;28;20249;-63
2021/12/19 08:15:29;;;;;;;22.20;15.27;;;;;;;5.97;94.71;101540.50;5021422;28;20236;-63
2021/12/19 08:17:54;;;;;;;20.17;15.23;;;;;;;5.90;94.78;101533.78;5050897;28;20567;-63
2021/12/19 08:20:20;;;;;;;22.50;14.50;;;;;;;6.02;94.52;101534.53;5024902;28;20302;-63
2021/12/19 08:22:47;;;;;;;19.07;14.13;;;;;;;6.10;94.25;101530.16;5037960;28;20192;-63
2021/12/19 08:25:13;;;;;;;20.13;15.37;;;;;;;6.20;93.64;101529.19;5015651;28;20685;-63
2021/12/19 08:27:38;;;;;;;20.07;14.23;;;;;;;6.32;93.37;101519.66;5035466;28;20181;-63
2021/12/19 08:30:06;;;;;;;22.90;15.10;;;;;;;6.30;92.58;101525.66;5020744;28;20218;-63
2021/12/19 08:32:31;;;;;;;20.00;13.80;;;;;;;6.28;92.42;101522.25;5024675;28;20797;-63
2021/12/19 08:34:57;;;;;;;19.13;14.83;;;;;;;6.35;92.36;101523.03;5034908;28;20699;-62
2021/12/19 08:37:22;;;;;;;22.67;15.53;;;;;;;6.46;91.99;101525.41;5037635;28;20182;-65
2021/12/19 08:39:47;;;;;;;23.10;15.90;;;;;;;6.57;91.44;101522.69;5038267;28;20182;-62
2021/12/19 08:42:14;;;;;;;20.50;15.43;;;;;;;6.55;90.72;101524.44;5023465;28;20244;-62
2021/12/19 08:44:39;;;;;;;22.00;16.03;;;;;;;6.33;91.55;101522.19;5038256;28;20203;-62
2021/12/19 08:47:06;;;;;;;21.60;15.47;;;;;;;6.40;91.95;101516.13;5045195;28;20220;-62
2021/12/19 08:49:31;;;;;;;21.67;16.77;;;;;;;6.53;91.88;101510.84;5017331;28;20690;-62
2021/12/19 08:51:57;;;;;;;24.00;16.37;;;;;;;6.62;91.59;101514.09;5022659;28;20264;-63
2021/12/19 08:54:22;;;;;;;20.63;15.17;;;;;;;6.55;90.95;101516.75;5032827;28;20172;-63
2021/12/19 08:56:49;;;;;;;21.33;16.23;;;;;;;6.74;90.76;101507.09;5044470;28;20235;-63
2021/12/19 08:59:14;;;;;;;19.17;15.17;;;;;;;6.67;89.93;101502.97;5047820;28;20172;-63
2021/12/19 09:01:39;;;;;;;21.17;15.10;;;;;;;6.73;89.34;101503.69;5031402;28;20244;-63
2021/12/19 09:04:06;;;;;;;20.37;15.20;;;;;;;6.84;89.10;101493.28;5032226;28;20257;-62
2021/12/19 09:06:31;;;;;;;18.77;15.17;;;;;;;6.94;88.69;101497.38;5038608;28;20230;-63
2021/12/19 09:08:56;;;;;;;18.80;14.80;;;;;;;6.94;88.50;101492.25;5053033;28;20244;-63
2021/12/19 09:11:22;;;;;;;21.37;16.07;;;;;;;7.06;87.82;101495.50;5031266;28;20633;-63
2021/12/19 09:13:48;;;;;;;19.13;16.20;;;;;;;7.13;87.34;101503.91;5032239;28;20181;-63
2021/12/19 09:16:14;;;;;;;20.87;15.23;;;;;;;7.03;86.81;101498.09;5034525;28;20619;-63
2021/12/19 09:18:39;;;;;;;18.30;14.33;;;;;;;7.18;86.71;101494.41;5033971;28;20189;-63
2021/12/19 09:21:05;;;;;;;19.23;14.60;;;;;;;7.34;86.43;101490.69;5033447;28;20230;-63
2021/12/19 09:23:32;;;;;;;18.50;13.80;;;;;;;7.27;85.95;101486.59;5035875;28;20184;-63
2021/12/19 09:25:57;;;;;;;18.77;15.20;;;;;;;7.15;86.18;101492.75;5033440;28;20197;-64
2021/12/19 09:28:24;;;;;;;21.50;14.43;;;;;;;7.32;85.67;101489.91;5043288;28;20166;-63
2021/12/19 09:30:49;;;;;;;17.97;14.17;;;;;;;7.30;85.07;101483.13;5041977;28;20240;-63
2021/12/19 09:33:15;;;;;;;18.03;13.87;;;;;;;7.07;85.59;101481.81;5043351;28;20224;-63
2021/12/19 09:35:40;;;;;;;16.93;13.57;;;;;;;7.16;85.66;101484.22;5015899;28;20244;-62
2021/12/19 09:38:06;;;;;;;16.87;13.33;;;;;;;7.19;85.04;101485.88;5015102;28;20170;-62
2021/12/19 09:40:34;;;;;;;19.00;14.13;;;;;;;7.26;85.48;101482.34;5022577;28;20255;-62
2021/12/19 09:43:09;;;;;;;17.57;13.20;;;;;;;7.17;85.06;101483.34;5042361;28;20177;-62
2021/12/19 09:45:36;;;;;;;14.03;12.17;;;;;;;7.07;84.34;101487.78;5049894;28;20199;-63
2021/12/19 09:48:02;;;;;;;15.73;13.23;;;;;;;7.04;84.85;101484.44;5032678;28;20192;-62
2021/12/19 09:50:28;;;;;;;15.27;12.97;;;;;;;7.14;84.96;101482.56;5038031;28;20319;-60
2021/12/19 09:52:54;;;;;;;15.50;13.73;;;;;;;7.20;84.36;101483.28;5027959;28;20659;-61
2021/12/19 09:55:21;;;;;;;16.70;12.93;;;;;;;7.45;84.23;101477.69;5033905;28;20204;-61
2021/12/19 09:57:49;;;;;;;14.90;12.83;;;;;;;7.22;84.36;101473.88;5015383;28;20181;-62
2021/12/19 10:00:15;;;;;;;16.33;13.27;;;;;;;7.14;84.85;101474.88;5007039;28;20198;-61
2021/12/19 10:02:41;;;;;;;14.90;13.00;;;;;;;7.21;84.60;101471.34;5031837;28;20169;-60
2021/12/19 10:05:19;;;;;;;15.80;12.50;;;;;;;6.93;84.74;101469.28;5046914;28;20999;-60
2021/12/19 10:08:00;;;;;;;16.30;12.67;;;;;;;7.10;84.29;101457.00;5032133;28;20647;-61
2021/12/19 10:10:46;;;;;;;15.30;13.33;;;;;;;7.09;84.80;101457.06;5029000;28;20236;-61
2021/12/19 10:13:12;;;;;;;14.83;12.43;;;;;;;7.26;84.38;101449.91;5032494;28;20183;-61
2021/12/19 10:15:41;;;;;;;14.83;12.30;;;;;;;7.28;84.36;101449.88;5040067;28;20190;-61
2021/12/19 10:18:15;;;;;;;17.03;12.70;;;;;;;7.02;84.01;101450.34;5039634;28;20178;-61
2021/12/19 10:20:40;;;;;;;17.80;13.57;;;;;;;7.03;84.30;101447.78;5030746;28;20311;-61
2021/12/19 10:23:12;;;;;;;15.03;12.70;;;;;;;6.97;84.88;101445.34;5028020;28;20207;-62
2021/12/19 10:25:37;;;;;;;14.93;13.23;;;;;;;7.02;84.14;101445.22;5020442;28;20281;-62
2021/12/19 10:28:06;;;;;;;16.57;12.20;;;;;;;6.89;84.52;101434.38;5032101;28;20701;-62
2021/12/19 10:30:36;;;;;;;16.13;13.37;;;;;;;6.92;84.73;101432.63;5021799;28;20822;-62
2021/12/19 10:33:06;;;;;;;14.63;12.17;;;;;;;6.91;85.10;101430.94;5037875;28;20196;-63
2021/12/19 10:35:50;;;;;;;17.53;14.53;;;;;;;7.25;84.81;101429.47;5048181;28;20204;-62
2021/12/19 10:38:27;;;;;;;16.87;14.20;;;;;;;7.31;82.94;101426.78;5033646;28;20235;-63
2021/12/19 10:40:54;;;;;;;14.63;12.27;;;;;;;7.47;82.92;101414.53;5021540;28;20233;-63
2021/12/19 10:43:21;;;;;;;14.60;12.33;;;;;;;7.53;82.83;101413.53;5031664;28;20170;-63
2021/12/19 10:45:48;;;;;;;13.33;11.73;;;;;;;7.59;81.53;101403.16;5050934;28;20189;-63
2021/12/19 10:48:20;;;;;;;16.23;12.07;;;;;;;7.43;81.52;101395.81;5050818;28;20173;-63
2021/12/19 10:51:08;;;;;;;13.47;11.10;;;;;;;7.42;81.17;101393.28;5037511;28;20230;-63
2021/12/19 10:53:53;;;;;;;14.40;11.67;;;;;;;7.51;80.79;101387.97;5032917;28;20197;-63
2021/12/19 10:56:31;;;;;;;13.63;11.20;;;;;;;7.23;80.65;101372.34;5040832;28;20495;-63
2021/12/19 10:59:00;;;;;;;13.33;11.70;;;;;;;7.39;80.94;101377.97;5042632;28;20178;-63
2021/12/19 11:01:29;;;;;;;15.50;12.43;;;;;;;7.41;81.08;101373.69;5023357;28;20717;-63
2021/12/19 11:04:03;;;;;;;14.67;11.97;;;;;;;7.52;81.07;101366.63;5031563;28;20212;-63
2021/12/19 11:06:43;;;;;;;14.93;12.47;;;;;;;7.79;80.25;101361.78;5031975;28;20201;-63
2021/12/19 11:09:20;;;;;;;15.33;12.27;;;;;;;7.55;80.37;101358.88;5033876;28;20177;-63
2021/12/19 11:11:54;;;;;;;13.80;11.37;;;;;;;7.64;79.79;101356.97;5020742;28;20256;-63
2021/12/19 11:14:40;;;;;;;14.77;11.93;;;;;;;7.58;79.35;101347.72;5032983;28;20200;-63
2021/12/19 11:17:15;;;;;;;13.70;11.13;;;;;;;7.38;80.50;101340.47;5031265;28;20245;-63
2021/12/19 11:19:41;;;;;;;14.40;11.53;;;;;;;7.55;81.06;101337.53;5033901;28;20205;-62
2021/12/19 11:22:08;;;;;;;14.63;11.37;;;;;;;7.54;80.93;101335.84;5019586;28;20229;-62
2021/12/19 11:24:34;;;;;;;14.03;12.50;;;;;;;7.51;79.97;101329.06;5014076;28;20189;-63
2021/12/19 11:27:02;;;;;;;14.97;12.07;;;;;;;7.67;80.13;101321.06;5045581;28;20205;-63
2021/12/19 11:29:28;;;;;;;15.27;12.10;;;;;;;7.63;80.83;101322.84;5030887;28;20646;-62
2021/12/19 11:32:00;;;;;;;14.63;12.33;;;;;;;7.40;81.19;101324.19;5037776;28;20256;-63
2021/12/19 11:35:05;;;;;;;12.93;11.47;;;;;;;7.57;81.68;101307.63;5049916;28;20184;-63
2021/12/19 11:37:41;;;;;;;15.17;12.23;;;;;;;7.60;80.81;101310.09;5051317;28;20296;-63
2021/12/19 11:40:08;;;;;;;14.13;12.27;;;;;;;7.76;80.41;101297.78;5024191;28;20639;-63
2021/12/19 11:42:36;;;;;;;14.43;11.87;;;;;;;7.72;80.02;101301.31;5025579;28;20559;-63
2021/12/19 11:45:36;;;;;;;14.13;12.27;;;;;;;7.83;79.57;101296.78;5025126;28;20226;-63
2021/12/19 11:50:50;;;;;;;15.87;12.80;;;;;;;8.04;78.69;101285.16;5020928;28;20233;-63
2021/12/19 11:53:15;;;;;;;13.80;11.57;;;;;;;7.91;78.53;101276.09;5027691;28;20177;-64
2021/12/19 11:55:56;;;;;;;15.03;12.10;;;;;;;8.00;78.80;101278.44;5019328;28;20190;-63
2021/12/19 11:58:27;;;;;;;16.63;12.43;;;;;;;7.92;78.99;101275.22;5042920;28;20190;-63
2021/12/19 12:00:57;;;;;;;14.00;11.60;;;;;;;7.75;79.58;101266.22;5009367;28;20233;-63
2021/12/19 12:03:32;;;;;;;13.83;11.73;;;;;;;7.74;79.21;101266.28;5033692;28;20189;-63
2021/12/19 12:05:57;;;;;;;15.50;12.87;;;;;;;7.82;79.97;101259.22;5046337;28;20193;-62
2021/12/19 12:08:25;;;;;;;14.53;12.33;;;;;;;7.79;79.53;101258.44;5019992;28;20178;-63
2021/12/19 12:10:58;;;;;;;15.37;12.43;;;;;;;7.79;78.89;101251.63;5043379;28;20326;-63
2021/12/19 12:13:26;;;;;;;18.37;14.67;;;;;;;7.51;80.12;101243.75;5024141;28;20181;-62
2021/12/19 12:16:03;;;;;;;27.47;20.70;;;;;;;7.66;80.73;101247.69;5024308;28;20255;-62
2021/12/19 12:18:34;;;;;;;13.83;11.70;;;;;;;7.67;80.25;101239.94;5033961;28;20173;-62
2021/12/19 12:21:18;;;;;;;15.53;12.20;;;;;;;7.55;80.60;101240.22;5023118;28;20300;-63
2021/12/19 12:24:04;;;;;;;16.13;12.97;;;;;;;7.39;80.31;101234.63;5038436;28;20194;-63
2021/12/19 12:26:51;;;;;;;15.53;12.77;;;;;;;7.42;81.51;101232.84;5031440;28;20194;-63
2021/12/19 12:29:17;;;;;;;15.43;12.63;;;;;;;7.37;80.89;101223.59;5053629;28;20180;-61